Aérodrome :
LOGIN :

S'inscrire | Disclaimer

   EN    FR    IT 

 










Légende :    VFR   VFR Marginal   IFR   IFR Intensif   IFR Très Intensif
Visi : 
Plafond : 
>= 8 km
>= 3000ft
5 à 8 km
1000 à 3000 ft
1500m à 5 km
500 à 1000 ft
800 à 1500m
200 à 500 ft
< 800m
< 200 ft
Symboles :   Orages  Brouillard  Fortes neiges  Fortes précipitations  Vent > 20 kt
SIGMETs :   Divers  Orages  Givrage  Turbulence  Onde Orograph.  Cendres Volcan.







- Altitude de l'aérodrome : 17 ft
- Code IATA : GRS


LIRS - Grosseto

DERNIER METAR :
  • 130855Z 04005KT 9999 -DZ FEW020 BKN040 06/04 Q1012

METARs EXPIRÉS :
  • 130755Z 03007KT 9999 -DZ FEW020 SCT040 05/03 Q1012
  • 130655Z 05005KT 9999 SCT040 BKN060 05/03 Q1012

TAF TAF LIRS
Valide du 13 à 09h jusqu'au 13 à 18h UTC


130800Z 1309/1318 04012KT 9999 SCT030 BKN060
Pas de NOTAMs connus pour ce terrain.
2 SIGMETs publiés pour la FIR Roma (LIRR) :
 
Givrage fort
LIRR SIGMET 3 VALID 130800/131000 LIIB
LIRR ROMA FIR SEV ICE FCST WI N4333 E01025 - N4217 E01218 - N4212 E01344 - N4254 E01302 - N4332 E01315 - N4342 E01107 - N4335 E01021 - N4333 E01025 FL050/140 STNR NC=
Givrage fort
LIRR SIGMET 2 VALID 130758/130958 LIIB
LIRR ROMA FIR SEV ICE OBS AT 0645Z WI N3910 E01605 - N3846 E01628 - N3808 E01553 - N3832 E01532 - N3910 E01605 FL150/170 STNR NC=



MET'MAP, la Météo Aéronautique d'un coup d'oeil ! - Copyright ORBIFLY Décembre 2007 - Disclaimer

ORBIFLY MET'MAP TEAM :

Programmation & Développement : Alexandra Zaïnal
Conception & Développement : Baudouin d'Aumeries
Co-Programmation & Développement : Marc-Olivier Méhu
Soutien technique & logistique : Manuel Goepfert

Contact : metmap@orbifly.com




SOURCES & CREDITS :

   NOAA